Kamo Maru — JL6625 — position and weather

sailwx.info

Track history (hours):
 
Tides and Currents Weather Stations Pressure Air Temp Water Temp Dewpoint Dewpoint Depression Visibility Wind Speed Wind Dir Waves Ship Positions

Kamo Maru

Last reported at 2018-Jan-12 11:39 UTC. Time now 2018-Jan-20 13:06 UTC.
Position N 34°29' E 134°30'.
Warning: this ship's position is 8 days out of date.

Length 40 m.

Type: Cargo ship. MMSI: 431501649.

Date/timePositionNaut miles runAvg speedWind from/ knotsBaromVisibWave heightAir tempDewpointWater temp
2018-Jan-12 11:39N 34°29' E 134°30'7 8.7
2018-Jan-12 10:50N 34°31' E 134°38'4 8.8
2018-Jan-12 10:25N 34°32' E 134°43'4 9.0
2018-Jan-12 09:59N 34°34' E 134°47'5 9.4
2018-Jan-12 09:30N 34°35' E 134°52'5 9.7
2018-Jan-12 09:00N 34°37' E 134°58'5 9.6
2018-Jan-12 08:30N 34°36' E 135°03'5 8.7
2018-Jan-12 07:58N 34°38' E 135°09'9 0.2
2018-Jan-10 11:50N 34°42' E 135°17'3 9.1
2018-Jan-10 11:30N 34°41' E 135°14'5 8.6
2018-Jan-10 10:58N 34°38' E 135°10'4 9.6
2018-Jan-10 10:30N 34°36' E 135°06'510.4
2018-Jan-10 10:00N 34°37' E 134°60'510.1
2018-Jan-10 09:30N 34°35' E 134°54'5 9.4
2018-Jan-10 09:00N 34°33' E 134°49'5 9.1
2018-Jan-10 08:30N 34°31' E 134°44'6 9.2
2018-Jan-10 07:52N 34°29' E 134°37'3 9.1
2018-Jan-10 07:30N 34°28' E 134°33'  
Track history (hours):
 
Tides and Currents Weather Stations Pressure Air Temp Water Temp Dewpoint Dewpoint Depression Visibility Wind Speed Wind Dir Waves Ship Positions

Kamo Maru

Last reported at 2018-Jan-12 11:39 UTC. Time now 2018-Jan-20 13:06 UTC.
Position N 34°29' E 134°30'.
Warning: this ship's position is 8 days out of date.

Length 40 m.

Type: Cargo ship. MMSI: 431501649.

Date/timePositionNaut miles runAvg speedWind from/ knotsBaromVisibWave heightAir tempDewpointWater temp
2018-Jan-12 11:39N 34°29' E 134°30'7 8.7
2018-Jan-12 10:50N 34°31' E 134°38'4 8.8
2018-Jan-12 10:25N 34°32' E 134°43'4 9.0
2018-Jan-12 09:59N 34°34' E 134°47'5 9.4
2018-Jan-12 09:30N 34°35' E 134°52'5 9.7
2018-Jan-12 09:00N 34°37' E 134°58'5 9.6
2018-Jan-12 08:30N 34°36' E 135°03'5 8.7
2018-Jan-12 07:58N 34°38' E 135°09'9 0.2
2018-Jan-10 11:50N 34°42' E 135°17'3 9.1
2018-Jan-10 11:30N 34°41' E 135°14'5 8.6
2018-Jan-10 10:58N 34°38' E 135°10'4 9.6
2018-Jan-10 10:30N 34°36' E 135°06'510.4
2018-Jan-10 10:00N 34°37' E 134°60'510.1
2018-Jan-10 09:30N 34°35' E 134°54'5 9.4
2018-Jan-10 09:00N 34°33' E 134°49'5 9.1
2018-Jan-10 08:30N 34°31' E 134°44'6 9.2
2018-Jan-10 07:52N 34°29' E 134°37'3 9.1
2018-Jan-10 07:30N 34°28' E 134°33'  

Dump ship's entire track history